Main page
METAR-TAF:

METAR-TAF

Airports :

Warton Aerodrome

Preston, England

latitude: 53-44-42N, longitude: 2-53-02W, elevation: 17 m

Current weather observation

The report was made 5 hours and 35 minutes ago, at 18:50 UTC
Wind 18 kt from the West with gusts up to 28 kt
Temperature 7°C
Humidity 66%
Pressure 1007 hPa
Visibility: 5000 m
Scattered clouds at a height of 3000 ft
rain showers, small hail or snow pellets

METAR: EGNO 171850Z 28018G28KT 5000 SHRAGS SCT030 07/01 Q1007

Time: 00:25 (00:25 UTC)

Forecast

The report was made 10 hours and 29 minutes ago, at 13:56 UTC
Forecast valid from 17 at 15 UTC to 17 at 19 UTC
Wind 20 kt from the West/Southwest with gusts up to 30 kt
Visibility 10 km or more
Few clouds at a height of 2000 ft
Temporary
from 17 at 15 UTC to 17 at 19 UTC
Visibility: 7000 m
rain showers
Probability 30% :
Temporary
from 17 at 18 UTC to 17 at 19 UTC
Wind 25 kt from the West with gusts up to 40 kt

TAF: EGNO 171356Z 1715/1719 25020G30KT 9999 FEW020 TEMPO 1715/1719 7000 SHRA PROB30 TEMPO 1718/1719 26025G40KT

Weather observations and forecasts of more than 4000 airports (METAR and TAF reports).

The available stations are represented by yellow and red dots on the map.

Hover mouse over dot to see the name of the station.

Then click to see weather observations and forecasts.

To change the map : click on the green buttons with a black cross to zoom in, on the green button with a dash to zoom out, or on the green arrows for adjacent maps.


METAR-TAF: